sensor_id;sensor_type;location;lat;lon;timestamp;pressure;altitude;pressure_sealevel;temperature;humidity
12594;BME280;6362;50.208;9.182;2023-08-07T00:02:09;99349.75;;;12.17;100.00
12594;BME280;6362;50.208;9.182;2023-08-07T00:04:35;99350.63;;;12.17;100.00
12594;BME280;6362;50.208;9.182;2023-08-07T00:07:00;99357.50;;;12.20;100.00
12594;BME280;6362;50.208;9.182;2023-08-07T00:09:25;99351.47;;;12.18;100.00
12594;BME280;6362;50.208;9.182;2023-08-07T00:11:51;99354.06;;;12.18;100.00
12594;BME280;6362;50.208;9.182;2023-08-07T00:14:16;99351.13;;;12.31;100.00
12594;BME280;6362;50.208;9.182;2023-08-07T00:16:42;99358.06;;;12.32;100.00
12594;BME280;6362;50.208;9.182;2023-08-07T00:19:07;99357.50;;;12.20;100.00
12594;BME280;6362;50.208;9.182;2023-08-07T00:21:32;99357.44;;;12.21;100.00
12594;BME280;6362;50.208;9.182;2023-08-07T00:24:00;99354.03;;;12.19;100.00
12594;BME280;6362;50.208;9.182;2023-08-07T00:26:26;99358.19;;;12.26;100.00
12594;BME280;6362;50.208;9.182;2023-08-07T00:28:51;99361.25;;;12.08;100.00
12594;BME280;6362;50.208;9.182;2023-08-07T00:31:17;99358.59;;;12.09;100.00
12594;BME280;6362;50.208;9.182;2023-08-07T00:33:43;99358.78;;;12.02;100.00
12594;BME280;6362;50.208;9.182;2023-08-07T00:36:08;99360.44;;;12.06;100.00
12594;BME280;6362;50.208;9.182;2023-08-07T00:38:33;99357.13;;;11.98;100.00
12594;BME280;6362;50.208;9.182;2023-08-07T00:40:59;99358.75;;;12.03;100.00
12594;BME280;6362;50.208;9.182;2023-08-07T00:43:25;99367.56;;;11.98;100.00
12594;BME280;6362;50.208;9.182;2023-08-07T00:45:50;99363.84;;;12.08;100.00
12594;BME280;6362;50.208;9.182;2023-08-07T00:48:16;99361.44;;;11.99;100.00
12594;BME280;6362;50.208;9.182;2023-08-07T00:50:44;99375.41;;;11.96;100.00
12594;BME280;6362;50.208;9.182;2023-08-07T00:53:09;99374.56;;;11.96;100.00
12594;BME280;6362;50.208;9.182;2023-08-07T00:55:35;99367.88;;;11.82;100.00
12594;BME280;6362;50.208;9.182;2023-08-07T00:58:01;99372.22;;;11.83;100.00
12594;BME280;6362;50.208;9.182;2023-08-07T01:00:29;99377.31;;;11.89;100.00
12594;BME280;6362;50.208;9.182;2023-08-07T01:02:59;99380.53;;;11.99;100.00
12594;BME280;6362;50.208;9.182;2023-08-07T01:05:25;99377.13;;;11.97;100.00
12594;BME280;6362;50.208;9.182;2023-08-07T01:07:53;99380.81;;;11.87;100.00
12594;BME280;6362;50.208;9.182;2023-08-07T01:10:27;99384.09;;;11.97;100.00
12594;BME280;6362;50.208;9.182;2023-08-07T01:13:05;99378.22;;;11.87;100.00
12594;BME280;6362;50.208;9.182;2023-08-07T01:15:33;99393.06;;;11.83;100.00
12594;BME280;6362;50.208;9.182;2023-08-07T01:17:59;99389.47;;;11.89;100.00
12594;BME280;6362;50.208;9.182;2023-08-07T01:20:25;99385.25;;;11.82;100.00
12594;BME280;6362;50.208;9.182;2023-08-07T01:22:50;99389.69;;;11.77;100.00
12594;BME280;6362;50.208;9.182;2023-08-07T01:25:16;99393.09;;;11.80;100.00
12594;BME280;6362;50.208;9.182;2023-08-07T01:27:46;99389.81;;;11.72;100.00
12594;BME280;6362;50.208;9.182;2023-08-07T01:30:27;99393.16;;;11.77;100.00
12594;BME280;6362;50.208;9.182;2023-08-07T01:33:11;99383.56;;;11.79;100.00
12594;BME280;6362;50.208;9.182;2023-08-07T01:35:42;99389.56;;;11.84;100.00
12594;BME280;6362;50.208;9.182;2023-08-07T01:38:08;99398.38;;;11.77;100.00
12594;BME280;6362;50.208;9.182;2023-08-07T01:40:37;99390.47;;;11.83;100.00
12594;BME280;6362;50.208;9.182;2023-08-07T01:43:04;99392.19;;;11.84;100.00
12594;BME280;6362;50.208;9.182;2023-08-07T01:45:29;99393.22;;;11.74;100.00
12594;BME280;6362;50.208;9.182;2023-08-07T01:47:55;99393.22;;;11.74;100.00
12594;BME280;6362;50.208;9.182;2023-08-07T01:50:21;99408.03;;;11.72;100.00
12594;BME280;6362;50.208;9.182;2023-08-07T01:52:47;99415.91;;;11.69;100.00
12594;BME280;6362;50.208;9.182;2023-08-07T01:55:15;99411.63;;;11.67;100.00
12594;BME280;6362;50.208;9.182;2023-08-07T01:57:40;99409.22;;;11.56;100.00
12594;BME280;6362;50.208;9.182;2023-08-07T02:00:06;99417.78;;;11.62;100.00
12594;BME280;6362;50.208;9.182;2023-08-07T02:02:33;99420.38;;;11.62;100.00
12594;BME280;6362;50.208;9.182;2023-08-07T02:04:59;99417.75;;;11.64;100.00
12594;BME280;6362;50.208;9.182;2023-08-07T02:07:24;99416.97;;;11.60;100.00
12594;BME280;6362;50.208;9.182;2023-08-07T02:09:49;99414.34;;;11.60;100.00
12594;BME280;6362;50.208;9.182;2023-08-07T02:12:15;99420.31;;;11.66;100.00
12594;BME280;6362;50.208;9.182;2023-08-07T02:14:40;99422.91;;;11.67;100.00
12594;BME280;6362;50.208;9.182;2023-08-07T02:17:06;99419.44;;;11.65;100.00
12594;BME280;6362;50.208;9.182;2023-08-07T02:19:31;99417.81;;;11.59;100.00
12594;BME280;6362;50.208;9.182;2023-08-07T02:21:57;99422.34;;;11.51;100.00
12594;BME280;6362;50.208;9.182;2023-08-07T02:24:22;99425.03;;;11.47;100.00
12594;BME280;6362;50.208;9.182;2023-08-07T02:26:48;99419.81;;;11.47;100.00
12594;BME280;6362;50.208;9.182;2023-08-07T02:29:14;99423.34;;;11.43;100.00
12594;BME280;6362;50.208;9.182;2023-08-07T02:31:39;99426.00;;;11.41;100.00
12594;BME280;6362;50.208;9.182;2023-08-07T02:34:04;99420.63;;;11.49;100.00
12594;BME280;6362;50.208;9.182;2023-08-07T02:36:30;99425.91;;;11.46;100.00
12594;BME280;6362;50.208;9.182;2023-08-07T02:38:55;99424.91;;;11.53;100.00
12594;BME280;6362;50.208;9.182;2023-08-07T02:41:21;99428.53;;;11.46;100.00
12594;BME280;6362;50.208;9.182;2023-08-07T02:43:47;99424.00;;;11.54;100.00
12594;BME280;6362;50.208;9.182;2023-08-07T02:46:12;99433.00;;;11.39;100.00
12594;BME280;6362;50.208;9.182;2023-08-07T02:48:38;99436.22;;;11.52;100.00
12594;BME280;6362;50.208;9.182;2023-08-07T02:51:05;99437.34;;;11.39;100.00
12594;BME280;6362;50.208;9.182;2023-08-07T02:53:30;99426.03;;;11.38;100.00
12594;BME280;6362;50.208;9.182;2023-08-07T02:55:56;99424.41;;;11.32;100.00
12594;BME280;6362;50.208;9.182;2023-08-07T02:58:21;99427.09;;;11.29;100.00
12594;BME280;6362;50.208;9.182;2023-08-07T03:00:47;99420.84;;;11.38;100.00
12594;BME280;6362;50.208;9.182;2023-08-07T03:03:12;99420.63;;;11.50;100.00
12594;BME280;6362;50.208;9.182;2023-08-07T03:05:37;99429.41;;;11.45;100.00
12594;BME280;6362;50.208;9.182;2023-08-07T03:08:03;99424.34;;;11.39;100.00
12594;BME280;6362;50.208;9.182;2023-08-07T03:10:29;99427.91;;;11.33;100.00
12594;BME280;6362;50.208;9.182;2023-08-07T03:12:54;99422.59;;;11.37;100.00
12594;BME280;6362;50.208;9.182;2023-08-07T03:15:19;99420.75;;;11.44;100.00
12594;BME280;6362;50.208;9.182;2023-08-07T03:17:45;99432.88;;;11.45;100.00
12594;BME280;6362;50.208;9.182;2023-08-07T03:20:11;99420.63;;;11.50;100.00
12594;BME280;6362;50.208;9.182;2023-08-07T03:22:36;99429.44;;;11.43;100.00
12594;BME280;6362;50.208;9.182;2023-08-07T03:25:02;99432.16;;;11.37;100.00
12594;BME280;6362;50.208;9.182;2023-08-07T03:27:27;99426.28;;;11.27;100.00
12594;BME280;6362;50.208;9.182;2023-08-07T03:29:53;99428.03;;;11.25;100.00
12594;BME280;6362;50.208;9.182;2023-08-07T03:32:19;99425.50;;;11.22;100.00
12594;BME280;6362;50.208;9.182;2023-08-07T03:34:44;99423.75;;;11.21;100.00
12594;BME280;6362;50.208;9.182;2023-08-07T03:37:10;99433.13;;;11.31;100.00
12594;BME280;6362;50.208;9.182;2023-08-07T03:39:35;99441.75;;;11.35;100.00
12594;BME280;6362;50.208;9.182;2023-08-07T03:42:00;99437.28;;;11.42;100.00
12594;BME280;6362;50.208;9.182;2023-08-07T03:44:26;99441.72;;;11.36;100.00
12594;BME280;6362;50.208;9.182;2023-08-07T03:46:51;99442.59;;;11.35;100.00
12594;BME280;6362;50.208;9.182;2023-08-07T03:49:17;99433.97;;;11.32;100.00
12594;BME280;6362;50.208;9.182;2023-08-07T03:51:42;99440.03;;;11.34;100.00
12594;BME280;6362;50.208;9.182;2023-08-07T03:54:08;99447.00;;;11.32;100.00
12594;BME280;6362;50.208;9.182;2023-08-07T03:56:33;99441.94;;;11.24;100.00
12594;BME280;6362;50.208;9.182;2023-08-07T03:59:02;99442.75;;;11.28;100.00
12594;BME280;6362;50.208;9.182;2023-08-07T04:01:27;99441.00;;;11.28;100.00
12594;BME280;6362;50.208;9.182;2023-08-07T04:03:53;99447.69;;;11.42;100.00
12594;BME280;6362;50.208;9.182;2023-08-07T04:06:18;99441.75;;;11.35;100.00
12594;BME280;6362;50.208;9.182;2023-08-07T04:08:45;99441.13;;;11.22;100.00
12594;BME280;6362;50.208;9.182;2023-08-07T04:11:11;99451.53;;;11.22;100.00
12594;BME280;6362;50.208;9.182;2023-08-07T04:13:36;99449.75;;;11.24;100.00
12594;BME280;6362;50.208;9.182;2023-08-07T04:16:02;99454.03;;;11.28;100.00
12594;BME280;6362;50.208;9.182;2023-08-07T04:18:29;99454.09;;;11.24;100.00
12594;BME280;6362;50.208;9.182;2023-08-07T04:20:56;99456.81;;;11.18;100.00
12594;BME280;6362;50.208;9.182;2023-08-07T04:23:22;99452.34;;;11.24;100.00
12594;BME280;6362;50.208;9.182;2023-08-07T04:25:48;99460.38;;;11.12;100.00
12594;BME280;6362;50.208;9.182;2023-08-07T04:28:14;99461.94;;;11.22;100.00
12594;BME280;6362;50.208;9.182;2023-08-07T04:30:40;99463.81;;;11.14;100.00
12594;BME280;6362;50.208;9.182;2023-08-07T04:33:06;99464.63;;;11.18;100.00
12594;BME280;6362;50.208;9.182;2023-08-07T04:35:32;99471.56;;;11.16;100.00
12594;BME280;6362;50.208;9.182;2023-08-07T04:37:57;99474.09;;;11.20;100.00
12594;BME280;6362;50.208;9.182;2023-08-07T04:40:23;99472.47;;;11.15;100.00
12594;BME280;6362;50.208;9.182;2023-08-07T04:42:51;99474.97;;;11.21;100.00
12594;BME280;6362;50.208;9.182;2023-08-07T04:45:17;99481.66;;;11.35;100.00
12594;BME280;6362;50.208;9.182;2023-08-07T04:47:42;99483.44;;;11.32;100.00
12594;BME280;6362;50.208;9.182;2023-08-07T04:50:08;99481.84;;;11.25;100.00
12594;BME280;6362;50.208;9.182;2023-08-07T04:52:34;99489.63;;;11.28;100.00
12594;BME280;6362;50.208;9.182;2023-08-07T04:55:00;99490.47;;;11.27;100.00
12594;BME280;6362;50.208;9.182;2023-08-07T04:57:25;99486.22;;;11.21;100.00
12594;BME280;6362;50.208;9.182;2023-08-07T04:59:51;99496.72;;;11.18;100.00
12594;BME280;6362;50.208;9.182;2023-08-07T05:02:17;99499.31;;;11.18;100.00
12594;BME280;6362;50.208;9.182;2023-08-07T05:04:43;99496.34;;;11.40;100.00
12594;BME280;6362;50.208;9.182;2023-08-07T05:07:08;99486.81;;;11.39;100.00
12594;BME280;6362;50.208;9.182;2023-08-07T05:09:35;99490.41;;;11.31;100.00
12594;BME280;6362;50.208;9.182;2023-08-07T05:12:00;99497.41;;;11.28;100.00
12594;BME280;6362;50.208;9.182;2023-08-07T05:14:25;99501.59;;;11.36;100.00
12594;BME280;6362;50.208;9.182;2023-08-07T05:16:51;99501.59;;;11.36;100.00
12594;BME280;6362;50.208;9.182;2023-08-07T05:19:16;99509.41;;;11.36;100.00
12594;BME280;6362;50.208;9.182;2023-08-07T05:21:42;99508.66;;;11.30;100.00
12594;BME280;6362;50.208;9.182;2023-08-07T05:24:07;99503.47;;;11.28;100.00
12594;BME280;6362;50.208;9.182;2023-08-07T05:26:32;99503.47;;;11.28;100.00
12594;BME280;6362;50.208;9.182;2023-08-07T05:28:58;99506.78;;;11.36;100.00
12594;BME280;6362;50.208;9.182;2023-08-07T05:31:24;99505.03;;;11.37;100.00
12594;BME280;6362;50.208;9.182;2023-08-07T05:33:50;99509.38;;;11.38;100.00
12594;BME280;6362;50.208;9.182;2023-08-07T05:36:15;99505.91;;;11.39;100.00
12594;BME280;6362;50.208;9.182;2023-08-07T05:38:41;99506.75;;;11.38;100.00
12594;BME280;6362;50.208;9.182;2023-08-07T05:41:08;99510.22;;;11.40;100.00
12594;BME280;6362;50.208;9.182;2023-08-07T05:43:34;99512.00;;;11.36;100.00
12594;BME280;6362;50.208;9.182;2023-08-07T05:45:59;99508.63;;;11.33;100.00
12594;BME280;6362;50.208;9.182;2023-08-07T05:48:25;99514.59;;;11.36;100.00
12594;BME280;6362;50.208;9.182;2023-08-07T05:50:51;99524.09;;;11.41;100.00
12594;BME280;6362;50.208;9.182;2023-08-07T05:53:17;99526.59;;;11.47;100.00
12594;BME280;6362;50.208;9.182;2023-08-07T05:55:42;99524.00;;;11.45;100.00
12594;BME280;6362;50.208;9.182;2023-08-07T05:58:08;99520.41;;;11.52;100.00
12594;BME280;6362;50.208;9.182;2023-08-07T06:00:33;99525.47;;;11.60;100.00
12594;BME280;6362;50.208;9.182;2023-08-07T06:02:59;99527.41;;;11.49;100.00
12594;BME280;6362;50.208;9.182;2023-08-07T06:05:24;99524.88;;;11.46;100.00
12594;BME280;6362;50.208;9.182;2023-08-07T06:07:50;99530.94;;;11.46;100.00
12594;BME280;6362;50.208;9.182;2023-08-07T06:10:15;99532.66;;;11.47;100.00
12594;BME280;6362;50.208;9.182;2023-08-07T06:12:41;99533.53;;;11.46;100.00
12594;BME280;6362;50.208;9.182;2023-08-07T06:15:06;99534.44;;;11.45;100.00
12594;BME280;6362;50.208;9.182;2023-08-07T06:17:32;99533.56;;;11.43;100.00
12594;BME280;6362;50.208;9.182;2023-08-07T06:19:57;99540.41;;;11.50;100.00
12594;BME280;6362;50.208;9.182;2023-08-07T06:22:23;99543.78;;;11.57;100.00
12594;BME280;6362;50.208;9.182;2023-08-07T06:24:48;99540.34;;;11.55;100.00
12594;BME280;6362;50.208;9.182;2023-08-07T06:27:14;99548.91;;;11.60;100.00
12594;BME280;6362;50.208;9.182;2023-08-07T06:29:40;99547.31;;;11.53;100.00
12594;BME280;6362;50.208;9.182;2023-08-07T06:32:05;99546.38;;;11.57;100.00
12594;BME280;6362;50.208;9.182;2023-08-07T06:34:31;99547.19;;;11.60;100.00
12594;BME280;6362;50.208;9.182;2023-08-07T06:36:57;99554.16;;;11.58;100.00
12594;BME280;6362;50.208;9.182;2023-08-07T06:39:22;99557.25;;;11.79;100.00
12594;BME280;6362;50.208;9.182;2023-08-07T06:41:47;99554.78;;;11.71;100.00
12594;BME280;6362;50.208;9.182;2023-08-07T06:44:13;99558.13;;;11.79;100.00
12594;BME280;6362;50.208;9.182;2023-08-07T06:46:38;99565.03;;;11.82;100.00
12594;BME280;6362;50.208;9.182;2023-08-07T06:49:04;99565.16;;;11.74;100.00
12594;BME280;6362;50.208;9.182;2023-08-07T06:51:29;99573.78;;;11.78;100.00
12594;BME280;6362;50.208;9.182;2023-08-07T06:53:55;99573.78;;;11.78;100.00
12594;BME280;6362;50.208;9.182;2023-08-07T06:56:21;99578.88;;;11.85;100.00
12594;BME280;6362;50.208;9.182;2023-08-07T06:58:46;99574.41;;;11.92;100.00
12594;BME280;6362;50.208;9.182;2023-08-07T07:01:12;99576.28;;;11.85;100.00
12594;BME280;6362;50.208;9.182;2023-08-07T07:03:37;99581.41;;;11.90;100.00
12594;BME280;6362;50.208;9.182;2023-08-07T07:06:02;99577.94;;;11.89;100.00
12594;BME280;6362;50.208;9.182;2023-08-07T07:08:28;99577.16;;;11.84;100.00
12594;BME280;6362;50.208;9.182;2023-08-07T07:10:53;99583.31;;;11.79;100.00
12594;BME280;6362;50.208;9.182;2023-08-07T07:13:19;99583.44;;;11.73;100.00
12594;BME280;6362;50.208;9.182;2023-08-07T07:15:44;99585.97;;;11.76;100.00
12594;BME280;6362;50.208;9.182;2023-08-07T07:18:10;99589.56;;;11.69;100.00
12594;BME280;6362;50.208;9.182;2023-08-07T07:20:35;99590.41;;;11.71;100.00
12594;BME280;6362;50.208;9.182;2023-08-07T07:23:01;99591.13;;;11.79;100.00
12594;BME280;6362;50.208;9.182;2023-08-07T07:25:26;99597.09;;;11.87;100.00
12594;BME280;6362;50.208;9.182;2023-08-07T07:27:52;99604.19;;;11.77;100.00
12594;BME280;6362;50.208;9.182;2023-08-07T07:30:17;99612.91;;;11.75;100.00
12594;BME280;6362;50.208;9.182;2023-08-07T07:32:42;99615.47;;;11.76;100.00
12594;BME280;6362;50.208;9.182;2023-08-07T07:35:08;99620.56;;;11.85;100.00
12594;BME280;6362;50.208;9.182;2023-08-07T07:37:33;99622.34;;;11.83;100.00
12594;BME280;6362;50.208;9.182;2023-08-07T07:39:59;99624.81;;;11.91;100.00
12594;BME280;6362;50.208;9.182;2023-08-07T07:42:24;99625.81;;;11.84;100.00
12594;BME280;6362;50.208;9.182;2023-08-07T07:44:50;99627.50;;;11.86;100.00
12594;BME280;6362;50.208;9.182;2023-08-07T07:47:16;99627.38;;;11.93;100.00
12594;BME280;6362;50.208;9.182;2023-08-07T07:49:45;99636.16;;;11.88;100.00
12594;BME280;6362;50.208;9.182;2023-08-07T07:52:13;99639.66;;;11.86;100.00
12594;BME280;6362;50.208;9.182;2023-08-07T07:54:38;99636.31;;;11.78;100.00
12594;BME280;6362;50.208;9.182;2023-08-07T07:57:04;99648.41;;;11.82;100.00
12594;BME280;6362;50.208;9.182;2023-08-07T07:59:29;99648.31;;;11.89;100.00
12594;BME280;6362;50.208;9.182;2023-08-07T08:01:55;99656.91;;;11.93;100.00
12594;BME280;6362;50.208;9.182;2023-08-07T08:04:20;99654.25;;;11.96;100.00
12594;BME280;6362;50.208;9.182;2023-08-07T08:06:46;99656.78;;;11.99;100.00
12594;BME280;6362;50.208;9.182;2023-08-07T08:09:13;99664.84;;;11.87;100.00
12594;BME280;6362;50.208;9.182;2023-08-07T08:11:38;99663.97;;;11.86;100.00
12594;BME280;6362;50.208;9.182;2023-08-07T08:14:04;99668.41;;;11.83;100.00
12594;BME280;6362;50.208;9.182;2023-08-07T08:16:29;99664.00;;;11.85;100.00
12594;BME280;6362;50.208;9.182;2023-08-07T08:18:55;99667.22;;;12.01;100.00
12594;BME280;6362;50.208;9.182;2023-08-07T08:21:20;99671.63;;;11.97;100.00
12594;BME280;6362;50.208;9.182;2023-08-07T08:23:46;99670.78;;;11.94;100.00
12594;BME280;6362;50.208;9.182;2023-08-07T08:26:11;99670.72;;;12.00;100.00
12594;BME280;6362;50.208;9.182;2023-08-07T08:28:37;99670.66;;;12.03;100.00
12594;BME280;6362;50.208;9.182;2023-08-07T08:31:03;99673.31;;;11.98;100.00
12594;BME280;6362;50.208;9.182;2023-08-07T08:33:28;99676.63;;;12.08;100.00
12594;BME280;6362;50.208;9.182;2023-08-07T08:35:54;99679.19;;;12.11;100.00
12594;BME280;6362;50.208;9.182;2023-08-07T08:38:19;99676.47;;;12.17;100.00
12594;BME280;6362;50.208;9.182;2023-08-07T08:40:47;99679.91;;;12.19;100.00
12594;BME280;6362;50.208;9.182;2023-08-07T08:43:15;99686.06;;;12.17;100.00
12594;BME280;6362;50.208;9.182;2023-08-07T08:45:43;99683.59;;;12.07;100.00
12594;BME280;6362;50.208;9.182;2023-08-07T08:48:14;99687.91;;;12.08;100.00
12594;BME280;6362;50.208;9.182;2023-08-07T08:50:46;99683.63;;;12.06;100.00
12594;BME280;6362;50.208;9.182;2023-08-07T08:53:15;99693.22;;;12.04;100.00
12594;BME280;6362;50.208;9.182;2023-08-07T08:55:41;99691.28;;;12.17;100.00
12594;BME280;6362;50.208;9.182;2023-08-07T08:58:13;99693.03;;;12.16;100.00
12594;BME280;6362;50.208;9.182;2023-08-07T09:00:41;99700.72;;;12.21;100.00
12594;BME280;6362;50.208;9.182;2023-08-07T09:03:06;99707.47;;;12.34;100.00
12594;BME280;6362;50.208;9.182;2023-08-07T09:05:32;99704.66;;;12.43;100.00
12594;BME280;6362;50.208;9.182;2023-08-07T09:08:00;99704.81;;;12.35;100.00
12594;BME280;6362;50.208;9.182;2023-08-07T09:10:26;99699.56;;;12.38;100.00
12594;BME280;6362;50.208;9.182;2023-08-07T09:13:04;99702.06;;;12.43;100.00
12594;BME280;6362;50.208;9.182;2023-08-07T09:15:31;99704.66;;;12.45;100.00
12594;BME280;6362;50.208;9.182;2023-08-07T09:17:58;99704.84;;;12.34;100.00
12594;BME280;6362;50.208;9.182;2023-08-07T09:20:27;99710.03;;;12.35;100.00
12594;BME280;6362;50.208;9.182;2023-08-07T09:22:53;99712.75;;;12.29;100.00
12594;BME280;6362;50.208;9.182;2023-08-07T09:25:33;99707.72;;;12.19;100.00
12594;BME280;6362;50.208;9.182;2023-08-07T09:28:02;99716.28;;;12.25;100.00
12594;BME280;6362;50.208;9.182;2023-08-07T09:30:32;99710.22;;;12.25;100.00
12594;BME280;6362;50.208;9.182;2023-08-07T09:33:00;99719.66;;;12.33;100.00
12594;BME280;6362;50.208;9.182;2023-08-07T09:35:26;99723.91;;;12.37;100.00
12594;BME280;6362;50.208;9.182;2023-08-07T09:37:51;99730.84;;;12.38;100.00
12594;BME280;6362;50.208;9.182;2023-08-07T09:40:18;99737.72;;;12.42;100.00
12594;BME280;6362;50.208;9.182;2023-08-07T09:42:44;99736.00;;;12.41;100.00
12594;BME280;6362;50.208;9.182;2023-08-07T09:48:03;99737.91;;;12.33;100.00
12594;BME280;6362;50.208;9.182;2023-08-07T09:50:30;99739.53;;;12.37;100.00
12594;BME280;6362;50.208;9.182;2023-08-07T09:52:56;99738.69;;;12.37;100.00
12594;BME280;6362;50.208;9.182;2023-08-07T09:55:23;99742.03;;;12.45;100.00
12594;BME280;6362;50.208;9.182;2023-08-07T09:57:49;99753.41;;;12.41;100.00
12594;BME280;6362;50.208;9.182;2023-08-07T10:00:15;99744.75;;;12.37;100.00
12594;BME280;6362;50.208;9.182;2023-08-07T10:02:42;99755.22;;;12.36;100.00
12594;BME280;6362;50.208;9.182;2023-08-07T10:05:09;99751.72;;;12.37;100.00
12594;BME280;6362;50.208;9.182;2023-08-07T10:07:38;99752.56;;;12.39;100.00
12594;BME280;6362;50.208;9.182;2023-08-07T10:10:05;99756.91;;;12.40;100.00
12594;BME280;6362;50.208;9.182;2023-08-07T10:12:31;99756.75;;;12.48;100.00
12594;BME280;6362;50.208;9.182;2023-08-07T10:14:59;99765.44;;;12.48;100.00
12594;BME280;6362;50.208;9.182;2023-08-07T10:17:25;99761.19;;;12.42;100.00
12594;BME280;6362;50.208;9.182;2023-08-07T10:19:53;99772.59;;;12.37;100.00
12594;BME280;6362;50.208;9.182;2023-08-07T10:22:19;99769.09;;;12.39;100.00
12594;BME280;6362;50.208;9.182;2023-08-07T10:24:48;99765.63;;;12.37;100.00
12594;BME280;6362;50.208;9.182;2023-08-07T10:27:15;99777.72;;;12.41;100.00
12594;BME280;6362;50.208;9.182;2023-08-07T10:29:43;99772.63;;;12.35;100.00
12594;BME280;6362;50.208;9.182;2023-08-07T10:32:10;99776.91;;;12.39;100.00
12594;BME280;6362;50.208;9.182;2023-08-07T10:34:38;99778.69;;;12.36;100.00
12594;BME280;6362;50.208;9.182;2023-08-07T10:37:07;99776.00;;;12.40;100.00
12594;BME280;6362;50.208;9.182;2023-08-07T10:39:33;99781.97;;;12.47;100.00
12594;BME280;6362;50.208;9.182;2023-08-07T10:41:59;99777.59;;;12.49;100.00
12594;BME280;6362;50.208;9.182;2023-08-07T10:44:30;99779.34;;;12.49;100.00
12594;BME280;6362;50.208;9.182;2023-08-07T10:46:58;99780.16;;;12.52;100.00
12594;BME280;6362;50.208;9.182;2023-08-07T10:52:11;99791.34;;;12.59;100.00
12594;BME280;6362;50.208;9.182;2023-08-07T10:54:44;99794.59;;;12.72;100.00
12594;BME280;6362;50.208;9.182;2023-08-07T10:57:13;99799.81;;;12.72;100.00
12594;BME280;6362;50.208;9.182;2023-08-07T11:00:05;99798.06;;;12.72;100.00
12594;BME280;6362;50.208;9.182;2023-08-07T11:02:31;99800.59;;;12.75;100.00
12594;BME280;6362;50.208;9.182;2023-08-07T11:04:58;99804.91;;;12.78;100.00
12594;BME280;6362;50.208;9.182;2023-08-07T11:07:30;99807.41;;;12.82;100.00
12594;BME280;6362;50.208;9.182;2023-08-07T11:09:56;99799.63;;;12.81;100.00
12594;BME280;6362;50.208;9.182;2023-08-07T11:12:26;99801.50;;;12.74;100.00
12594;BME280;6362;50.208;9.182;2023-08-07T11:14:52;99804.88;;;12.79;100.00
12594;BME280;6362;50.208;9.182;2023-08-07T11:17:18;99804.06;;;12.77;100.00
12594;BME280;6362;50.208;9.182;2023-08-07T11:19:46;99805.63;;;12.86;100.00
12594;BME280;6362;50.208;9.182;2023-08-07T11:22:12;99811.66;;;12.88;100.00
12594;BME280;6362;50.208;9.182;2023-08-07T11:24:37;99808.28;;;12.84;100.00
12594;BME280;6362;50.208;9.182;2023-08-07T11:27:03;99822.09;;;12.88;100.00
12594;BME280;6362;50.208;9.182;2023-08-07T11:29:28;99816.03;;;12.87;100.00
12594;BME280;6362;50.208;9.182;2023-08-07T11:31:56;99809.16;;;12.83;100.00
12594;BME280;6362;50.208;9.182;2023-08-07T11:34:21;99812.75;;;12.76;100.00
12594;BME280;6362;50.208;9.182;2023-08-07T11:36:47;99819.75;;;12.74;100.00
12594;BME280;6362;50.208;9.182;2023-08-07T11:39:13;99818.09;;;12.72;100.00
12594;BME280;6362;50.208;9.182;2023-08-07T11:41:39;99813.72;;;12.71;100.00
12594;BME280;6362;50.208;9.182;2023-08-07T11:44:08;99821.69;;;12.63;100.00
12594;BME280;6362;50.208;9.182;2023-08-07T11:46:33;99828.59;;;12.65;100.00
12594;BME280;6362;50.208;9.182;2023-08-07T11:48:59;99827.81;;;12.62;100.00
12594;BME280;6362;50.208;9.182;2023-08-07T11:51:25;99823.38;;;12.67;100.00
12594;BME280;6362;50.208;9.182;2023-08-07T11:53:50;99830.13;;;12.79;100.00
12594;BME280;6362;50.208;9.182;2023-08-07T11:56:22;99830.25;;;12.71;100.00
12594;BME280;6362;50.208;9.182;2023-08-07T11:58:48;99829.34;;;12.74;100.00
12594;BME280;6362;50.208;9.182;2023-08-07T12:01:24;99827.59;;;12.74;100.00
12594;BME280;6362;50.208;9.182;2023-08-07T12:04:11;99841.50;;;12.75;100.00
12594;BME280;6362;50.208;9.182;2023-08-07T12:06:37;99834.41;;;12.81;100.00
12594;BME280;6362;50.208;9.182;2023-08-07T12:09:06;99839.78;;;12.74;100.00
12594;BME280;6362;50.208;9.182;2023-08-07T12:11:37;99844.97;;;12.75;100.00
12594;BME280;6362;50.208;9.182;2023-08-07T12:14:03;99849.34;;;12.73;100.00
12594;BME280;6362;50.208;9.182;2023-08-07T12:16:32;99844.81;;;12.84;100.00
12594;BME280;6362;50.208;9.182;2023-08-07T12:18:58;99850.13;;;12.78;100.00
12594;BME280;6362;50.208;9.182;2023-08-07T12:21:24;99851.00;;;12.79;100.00
12594;BME280;6362;50.208;9.182;2023-08-07T12:23:51;99849.19;;;12.82;100.00
12594;BME280;6362;50.208;9.182;2023-08-07T12:26:17;99855.25;;;12.84;100.00
12594;BME280;6362;50.208;9.182;2023-08-07T12:28:43;99858.59;;;12.91;100.00
12594;BME280;6362;50.208;9.182;2023-08-07T12:31:08;99859.25;;;13.02;100.00
12594;BME280;6362;50.208;9.182;2023-08-07T12:33:34;99864.53;;;13.01;100.00
12594;BME280;6362;50.208;9.182;2023-08-07T12:36:01;99859.97;;;13.12;100.00
12594;BME280;6362;50.208;9.182;2023-08-07T12:38:27;99859.91;;;13.13;100.00
12594;BME280;6362;50.208;9.182;2023-08-07T12:40:52;99858.84;;;13.25;100.00
12594;BME280;6362;50.208;9.182;2023-08-07T12:43:18;99857.09;;;13.26;100.00
12594;BME280;6362;50.208;9.182;2023-08-07T12:45:44;99864.63;;;13.41;100.00
12594;BME280;6362;50.208;9.182;2023-08-07T12:48:10;99855.56;;;13.59;98.92
12594;BME280;6362;50.208;9.182;2023-08-07T12:50:36;99861.41;;;13.70;100.00
12594;BME280;6362;50.208;9.182;2023-08-07T12:53:01;99857.75;;;13.79;100.00
12594;BME280;6362;50.208;9.182;2023-08-07T12:55:28;99863.53;;;13.93;99.99
12594;BME280;6362;50.208;9.182;2023-08-07T12:57:54;99860.56;;;14.08;100.00
12594;BME280;6362;50.208;9.182;2023-08-07T13:00:20;99866.25;;;14.25;97.33
12594;BME280;6362;50.208;9.182;2023-08-07T13:02:48;99860.59;;;14.44;99.52